Time;durP1;ratioP1;P1;durP2;ratioP2;P2;SDS_P1;SDS_P2;PMS_P1;PMS_P2;Temp;Humidity;BMP_temperature;BMP_pressure;BME280_temperature;BME280_humidity;BME280_pressure;Samples;Min_cycle;Max_cycle;Signal;HPM_P1;HPM_P2
2023/05/27 00:02:10;;;;;;;8.93;3.25;;;;;15.30;99406.00;;;;5053504;28;20045;-62
2023/05/27 00:04:36;;;;;;;11.30;3.50;;;;;15.30;99407.00;;;;5054563;28;20053;-62
2023/05/27 00:07:03;;;;;;;5.95;2.70;;;;;15.30;99416.00;;;;5054503;28;20052;-63
2023/05/27 00:09:30;;;;;;;11.73;3.50;;;;;15.30;99401.00;;;;5054185;28;20051;-62
2023/05/27 00:11:56;;;;;;;9.80;3.72;;;;;15.30;99403.00;;;;5054476;28;20073;-62
2023/05/27 00:14:24;;;;;;;10.77;3.63;;;;;15.30;99404.00;;;;5054478;28;20041;-62
2023/05/27 00:16:51;;;;;;;10.18;3.33;;;;;15.40;99400.00;;;;5054499;28;20099;-63
2023/05/27 00:19:18;;;;;;;13.35;3.35;;;;;15.40;99411.00;;;;5054074;28;20045;-62
2023/05/27 00:21:44;;;;;;;11.30;3.22;;;;;15.40;99408.00;;;;5054101;28;20124;-62
2023/05/27 00:24:11;;;;;;;11.82;3.65;;;;;15.40;99417.00;;;;5054351;28;20521;-62
2023/05/27 00:26:39;;;;;;;11.32;3.13;;;;;15.30;99415.00;;;;5057187;28;20037;-62
2023/05/27 00:29:06;;;;;;;13.30;3.47;;;;;15.20;99415.00;;;;5058813;28;20065;-61
2023/05/27 00:31:32;;;;;;;9.52;3.10;;;;;15.20;99414.00;;;;5057691;28;20136;-62
2023/05/27 00:34:00;;;;;;;11.85;3.60;;;;;15.20;99414.00;;;;5054048;28;20574;-63
2023/05/27 00:36:26;;;;;;;11.95;3.78;;;;;15.20;99411.00;;;;5053840;28;20565;-63
2023/05/27 00:38:53;;;;;;;10.05;3.60;;;;;15.20;99405.00;;;;5053861;28;20049;-63
2023/05/27 00:41:20;;;;;;;11.30;3.60;;;;;15.10;99408.00;;;;5053986;28;20041;-60
2023/05/27 00:43:47;;;;;;;11.35;3.70;;;;;15.10;99394.00;;;;5052920;28;20052;-62
2023/05/27 00:46:13;;;;;;;13.27;4.00;;;;;15.10;99396.00;;;;5053690;28;20094;-61
2023/05/27 00:48:40;;;;;;;10.75;3.40;;;;;15.00;99401.00;;;;5053718;28;20110;-61
2023/05/27 00:51:07;;;;;;;10.45;3.22;;;;;15.00;99405.00;;;;5053418;28;20041;-62
2023/05/27 00:53:41;;;;;;;10.65;3.58;;;;;14.90;99403.00;;;;5052773;28;20521;-62
2023/05/27 00:56:09;;;;;;;10.82;3.40;;;;;14.90;99397.00;;;;5052669;28;20049;-62
2023/05/27 00:58:36;;;;;;;12.05;3.40;;;;;14.80;99400.00;;;;5051503;28;20095;-62
2023/05/27 01:01:04;;;;;;;9.80;3.22;;;;;14.70;99401.00;;;;5052357;28;20041;-62
2023/05/27 01:03:32;;;;;;;15.13;3.92;;;;;14.70;99395.00;;;;5052468;28;20049;-62
2023/05/27 01:06:05;;;;;;;11.05;3.75;;;;;14.60;99388.00;;;;5053606;28;20044;-62
2023/05/27 01:08:41;;;;;;;13.02;3.35;;;;;14.60;99388.00;;;;5053540;28;20068;-62
2023/05/27 01:11:10;;;;;;;7.40;3.40;;;;;14.60;99385.00;;;;5052725;28;20452;-62
2023/05/27 01:13:45;;;;;;;9.13;3.08;;;;;14.50;99386.00;;;;5035632;28;20427;-62
2023/05/27 01:16:15;;;;;;;15.10;3.53;;;;;14.60;99389.00;;;;5053194;28;20099;-62
2023/05/27 01:18:44;;;;;;;15.57;3.05;;;;;14.50;99382.00;;;;5053302;28;20506;-62
2023/05/27 01:21:18;;;;;;;13.50;3.90;;;;;14.50;99384.00;;;;5051896;28;20521;-62
2023/05/27 01:23:48;;;;;;;13.27;3.55;;;;;14.50;99390.00;;;;5052128;28;20045;-62
2023/05/27 01:26:15;;;;;;;12.38;4.18;;;;;14.50;99388.00;;;;5053543;28;20498;-62
2023/05/27 01:28:43;;;;;;;12.77;3.63;;;;;14.40;99383.00;;;;5052281;28;20421;-62
2023/05/27 01:31:26;;;;;;;15.98;4.60;;;;;14.40;99377.00;;;;5052967;28;20037;-63
2023/05/27 01:34:03;;;;;;;13.45;3.50;;;;;14.40;99382.00;;;;5053944;28;20079;-62
2023/05/27 01:36:36;;;;;;;10.25;3.60;;;;;14.50;99373.00;;;;5053924;28;20068;-62
2023/05/27 01:39:05;;;;;;;9.93;3.72;;;;;14.40;99370.00;;;;5052671;28;20072;-62
2023/05/27 01:41:33;;;;;;;9.23;2.97;;;;;14.40;99377.00;;;;5052944;28;20047;-62
2023/05/27 01:44:00;;;;;;;10.40;3.38;;;;;14.30;99364.00;;;;5053116;28;20084;-62
2023/05/27 01:46:26;;;;;;;8.52;3.03;;;;;14.20;99370.00;;;;5053910;28;20132;-63
2023/05/27 01:48:53;;;;;;;14.27;3.40;;;;;14.20;99368.00;;;;5051494;28;20494;-63
2023/05/27 01:51:20;;;;;;;14.90;3.80;;;;;14.10;99367.00;;;;5052451;28;20128;-63
2023/05/27 01:53:47;;;;;;;10.45;3.55;;;;;14.00;99366.00;;;;5051392;28;20079;-63
2023/05/27 01:56:13;;;;;;;12.35;4.28;;;;;14.00;99366.00;;;;5051215;28;20049;-63
2023/05/27 01:58:40;;;;;;;15.45;3.50;;;;;13.90;99355.00;;;;5051267;28;20136;-62
2023/05/27 02:01:07;;;;;;;9.82;3.47;;;;;13.90;99360.00;;;;5050976;28;20098;-63
2023/05/27 02:03:34;;;;;;;12.05;3.72;;;;;13.90;99359.00;;;;5051574;28;20045;-63
2023/05/27 02:06:02;;;;;;;9.27;2.88;;;;;13.90;99357.00;;;;5051084;28;20049;-62
2023/05/27 02:08:29;;;;;;;10.38;3.00;;;;;13.90;99355.00;;;;5051214;28;20041;-63
2023/05/27 02:10:56;;;;;;;7.72;3.13;;;;;13.80;99357.00;;;;5050728;28;20144;-63
2023/05/27 02:13:22;;;;;;;11.98;3.38;;;;;13.90;99359.00;;;;5052528;28;20140;-62
2023/05/27 02:15:50;;;;;;;10.02;3.17;;;;;13.80;99361.00;;;;5051074;28;20139;-63
2023/05/27 02:18:20;;;;;;;10.60;3.40;;;;;13.70;99354.00;;;;5051022;28;20045;-62
2023/05/27 02:20:47;;;;;;;8.32;3.17;;;;;13.70;99362.00;;;;5051018;28;20115;-62
2023/05/27 02:23:13;;;;;;;11.63;3.15;;;;;13.70;99359.00;;;;5051614;28;20555;-63
2023/05/27 02:25:40;;;;;;;11.73;3.22;;;;;13.70;99354.00;;;;5053352;28;20048;-63
2023/05/27 02:28:06;;;;;;;9.48;3.20;;;;;13.60;99356.00;;;;5053044;28;20070;-63
2023/05/27 02:30:34;;;;;;;15.18;3.78;;;;;13.70;99357.00;;;;5051156;28;20145;-63
2023/05/27 02:33:01;;;;;;;9.23;3.15;;;;;13.60;99354.00;;;;5050931;28;20132;-63
2023/05/27 02:35:28;;;;;;;8.82;3.40;;;;;13.60;99358.00;;;;5050931;28;20052;-63
2023/05/27 02:37:55;;;;;;;9.80;3.55;;;;;13.50;99357.00;;;;5034342;28;20497;-63
2023/05/27 02:40:28;;;;;;;11.40;3.38;;;;;13.50;99346.00;;;;5050467;28;20123;-63
2023/05/27 02:42:56;;;;;;;14.00;3.67;;;;;13.50;99342.00;;;;5050888;28;20045;-63
2023/05/27 02:45:23;;;;;;;12.40;3.42;;;;;13.40;99345.00;;;;5052136;28;20045;-63
2023/05/27 02:47:51;;;;;;;8.88;3.40;;;;;13.40;99343.00;;;;5051088;28;20398;-63
2023/05/27 02:50:17;;;;;;;11.65;3.15;;;;;13.40;99340.00;;;;5050083;28;20494;-63
2023/05/27 02:52:44;;;;;;;10.30;3.75;;;;;13.50;99334.00;;;;5050628;28;20494;-62
2023/05/27 02:55:11;;;;;;;14.63;3.72;;;;;13.40;99333.00;;;;5050780;28;20045;-62
2023/05/27 02:57:38;;;;;;;9.18;3.38;;;;;13.40;99335.00;;;;5052064;28;20070;-62
2023/05/27 03:00:05;;;;;;;11.07;3.40;;;;;13.30;99335.00;;;;5034271;28;20460;-62
2023/05/27 03:02:32;;;;;;;17.38;4.47;;;;;13.30;99346.00;;;;5050684;28;20148;-63
2023/05/27 03:05:00;;;;;;;11.95;3.78;;;;;13.20;99326.00;;;;5050478;28;20076;-63
2023/05/27 03:07:30;;;;;;;13.23;3.22;;;;;13.20;99332.00;;;;5050922;28;20072;-63
2023/05/27 03:09:57;;;;;;;13.18;3.72;;;;;13.20;99338.00;;;;5050501;28;20510;-63
2023/05/27 03:12:25;;;;;;;14.07;3.50;;;;;13.10;99341.00;;;;5050650;28;20037;-63
2023/05/27 03:14:51;;;;;;;13.27;3.70;;;;;13.10;99340.00;;;;5050575;28;20103;-63
2023/05/27 03:17:19;;;;;;;8.77;3.42;;;;;13.10;99339.00;;;;5050506;28;20391;-63
2023/05/27 03:19:46;;;;;;;10.75;3.92;;;;;13.00;99334.00;;;;5051509;28;20045;-63
2023/05/27 03:22:13;;;;;;;11.95;4.35;;;;;12.90;99345.00;;;;5052568;28;20060;-63
2023/05/27 03:24:40;;;;;;;6.45;3.30;;;;;12.90;99345.00;;;;5054202;28;20119;-63
2023/05/27 03:27:07;;;;;;;11.73;3.67;;;;;12.80;99340.00;;;;5054290;28;20130;-63
2023/05/27 03:29:36;;;;;;;14.45;4.47;;;;;12.90;99337.00;;;;5053664;28;20414;-63
2023/05/27 03:32:04;;;;;;;12.60;3.90;;;;;13.10;99342.00;;;;5054216;28;20052;-63
2023/05/27 03:34:32;;;;;;;18.73;7.75;;;;;13.10;99347.00;;;;5053961;28;20049;-63
2023/05/27 03:36:59;;;;;;;10.35;3.53;;;;;13.00;99340.00;;;;5054092;28;20040;-63
2023/05/27 03:39:42;;;;;;;9.75;4.25;;;;;13.00;99337.00;;;;5054170;28;20135;-63
2023/05/27 03:42:09;;;;;;;13.35;3.95;;;;;13.00;99333.00;;;;5054008;28;20049;-61
2023/05/27 03:44:36;;;;;;;10.45;3.58;;;;;12.90;99335.00;;;;5056607;28;20049;-61
2023/05/27 03:47:03;;;;;;;13.10;4.18;;;;;12.90;99334.00;;;;5039376;28;20490;-60
2023/05/27 03:49:30;;;;;;;11.02;3.42;;;;;12.80;99340.00;;;;5054400;28;20124;-60
2023/05/27 03:51:58;;;;;;;12.77;3.72;;;;;12.90;99329.00;;;;5038454;28;20559;-61
2023/05/27 03:54:24;;;;;;;12.23;3.50;;;;;12.90;99328.00;;;;5053716;28;20053;-61
2023/05/27 03:56:51;;;;;;;10.43;3.95;;;;;12.90;99326.00;;;;5054632;28;20049;-61
2023/05/27 03:59:18;;;;;;;9.98;3.72;;;;;12.90;99336.00;;;;5054862;28;20577;-63
2023/05/27 04:01:44;;;;;;;10.80;3.45;;;;;12.90;99328.00;;;;5054067;28;20099;-61
2023/05/27 04:04:11;;;;;;;13.25;4.13;;;;;12.90;99328.00;;;;5054859;28;20075;-61
2023/05/27 04:06:38;;;;;;;10.25;4.40;;;;;12.90;99328.00;;;;5055099;28;20119;-60
2023/05/27 04:09:05;;;;;;;9.50;3.17;;;;;12.90;99334.00;;;;5053572;28;20049;-60
2023/05/27 04:11:31;;;;;;;9.50;3.10;;;;;12.90;99330.00;;;;5054607;28;20076;-61
2023/05/27 04:13:58;;;;;;;13.73;4.95;;;;;13.00;99326.00;;;;5053129;28;20151;-60
2023/05/27 04:16:25;;;;;;;15.18;5.68;;;;;13.10;99324.00;;;;5054490;28;20048;-62
2023/05/27 04:18:52;;;;;;;11.50;4.25;;;;;13.10;99321.00;;;;5053895;28;20095;-62
2023/05/27 04:21:19;;;;;;;11.40;3.85;;;;;13.10;99322.00;;;;5054549;28;20036;-63
2023/05/27 04:23:47;;;;;;;13.82;4.60;;;;;13.10;99320.00;;;;5053094;28;20075;-62
2023/05/27 04:26:14;;;;;;;13.63;4.30;;;;;13.20;99317.00;;;;5052835;28;20105;-61
2023/05/27 04:28:48;;;;;;;8.68;4.00;;;;;13.20;99324.00;;;;5057636;28;20041;-62
2023/05/27 04:31:15;;;;;;;10.40;4.28;;;;;13.20;99328.00;;;;5061573;28;20052;-63
2023/05/27 04:33:46;;;;;;;11.18;3.80;;;;;13.30;99315.00;;;;5059125;28;20532;-62
2023/05/27 04:36:17;;;;;;;12.82;4.57;;;;;13.40;99320.00;;;;5057312;28;20045;-63
2023/05/27 04:38:57;;;;;;;12.25;4.20;;;;;13.50;99324.00;;;;5055065;28;20056;-61
2023/05/27 04:41:27;;;;;;;13.93;3.85;;;;;13.50;99315.00;;;;5053031;28;20045;-62
2023/05/27 04:44:11;;;;;;;9.18;3.70;;;;;13.70;99313.00;;;;5053858;28;20044;-62
2023/05/27 04:46:43;;;;;;;11.63;4.90;;;;;13.90;99318.00;;;;5052398;28;20044;-62
2023/05/27 04:49:10;;;;;;;14.15;4.60;;;;;13.90;99309.00;;;;5036016;28;20132;-62
2023/05/27 04:51:37;;;;;;;14.43;4.22;;;;;14.10;99314.00;;;;5054013;28;20061;-63
2023/05/27 04:54:05;;;;;;;11.93;4.47;;;;;14.20;99315.00;;;;5052622;28;20049;-63
2023/05/27 04:56:33;;;;;;;11.50;3.75;;;;;14.20;99320.00;;;;5053105;28;20139;-63
2023/05/27 04:59:00;;;;;;;10.95;4.30;;;;;14.40;99321.00;;;;5052322;28;20067;-62
2023/05/27 05:01:48;;;;;;;9.93;4.38;;;;;14.60;99325.00;;;;5052418;28;20044;-63
2023/05/27 05:04:22;;;;;;;11.68;3.75;;;;;14.70;99328.00;;;;5052433;28;20509;-63
2023/05/27 05:06:56;;;;;;;13.60;3.47;;;;;14.80;99328.00;;;;5052291;28;20053;-63
2023/05/27 05:09:24;;;;;;;13.35;3.72;;;;;14.80;99320.00;;;;5051679;28;20047;-63
2023/05/27 05:11:51;;;;;;;9.93;3.33;;;;;14.70;99326.00;;;;5052047;28;20048;-63
2023/05/27 05:14:18;;;;;;;11.90;3.92;;;;;14.60;99325.00;;;;5051523;28;20049;-62
2023/05/27 05:16:45;;;;;;;10.13;4.18;;;;;14.70;99327.00;;;;5035377;28;20524;-62
2023/05/27 05:19:13;;;;;;;13.98;4.13;;;;;14.90;99330.00;;;;5052139;28;20118;-62
2023/05/27 05:21:40;;;;;;;8.15;3.53;;;;;15.00;99324.00;;;;5051694;28;20477;-62
2023/05/27 05:24:09;;;;;;;16.58;4.03;;;;;15.10;99326.00;;;;5051691;28;20041;-61
2023/05/27 05:26:37;;;;;;;11.73;3.60;;;;;15.00;99325.00;;;;5051869;28;20045;-61
2023/05/27 05:29:04;;;;;;;12.32;4.18;;;;;15.00;99323.00;;;;5052002;28;20076;-61
2023/05/27 05:31:30;;;;;;;12.57;3.58;;;;;15.10;99334.00;;;;5052200;28;20045;-60
2023/05/27 05:33:57;;;;;;;13.93;3.35;;;;;15.20;99332.00;;;;5053142;28;20498;-61
2023/05/27 05:36:26;;;;;;;8.63;3.05;;;;;15.10;99326.00;;;;5051036;28;20075;-61
2023/05/27 05:39:00;;;;;;;8.73;3.53;;;;;15.20;99328.00;;;;5053414;28;20394;-61
2023/05/27 05:41:26;;;;;;;10.75;3.67;;;;;15.30;99331.00;;;;5052588;28;20140;-61
2023/05/27 05:43:54;;;;;;;10.52;3.25;;;;;15.30;99323.00;;;;5052324;28;20072;-61
2023/05/27 05:46:21;;;;;;;9.90;3.47;;;;;15.30;99326.00;;;;5051496;28;20136;-61
2023/05/27 05:48:51;;;;;;;10.52;3.67;;;;;15.40;99326.00;;;;5051918;28;20041;-60
2023/05/27 05:51:24;;;;;;;12.02;4.03;;;;;15.40;99334.00;;;;5051378;28;20053;-61
2023/05/27 05:53:59;;;;;;;10.57;3.03;;;;;15.50;99322.00;;;;5052216;28;20410;-62
2023/05/27 05:56:27;;;;;;;9.80;3.53;;;;;15.60;99322.00;;;;5051703;28;20395;-61
2023/05/27 05:58:54;;;;;;;13.02;4.35;;;;;15.60;99327.00;;;;5050875;28;20131;-63
2023/05/27 06:01:22;;;;;;;18.73;3.33;;;;;15.50;99327.00;;;;5051380;28;20540;-62
2023/05/27 06:03:49;;;;;;;11.55;3.63;;;;;15.50;99322.00;;;;5051353;28;20099;-61
2023/05/27 06:06:28;;;;;;;11.68;3.72;;;;;15.50;99319.00;;;;5051046;28;20065;-62
2023/05/27 06:09:06;;;;;;;13.52;3.78;;;;;15.50;99322.00;;;;5050939;28;20063;-62
2023/05/27 06:11:32;;;;;;;13.52;3.35;;;;;15.50;99320.00;;;;5051171;28;20049;-62
2023/05/27 06:13:59;;;;;;;12.82;3.67;;;;;15.60;99321.00;;;;5051378;28;20059;-62
2023/05/27 06:16:26;;;;;;;9.13;3.40;;;;;15.70;99326.00;;;;5050976;28;20045;-63
2023/05/27 06:18:53;;;;;;;11.80;3.63;;;;;15.70;99322.00;;;;5052101;28;20044;-63
2023/05/27 06:21:20;;;;;;;8.40;3.08;;;;;15.70;99324.00;;;;5052435;28;20095;-63
2023/05/27 06:24:09;;;;;;;12.18;3.15;;;;;15.80;99330.00;;;;5052099;28;20060;-63
2023/05/27 06:26:41;;;;;;;11.02;3.20;;;;;15.90;99328.00;;;;5051337;28;20047;-62
2023/05/27 06:29:08;;;;;;;9.85;3.22;;;;;15.90;99329.00;;;;5034195;28;20051;-62
2023/05/27 06:31:34;;;;;;;7.53;2.97;;;;;16.00;99327.00;;;;5052268;28;20045;-62
2023/05/27 06:34:01;;;;;;;9.10;3.17;;;;;16.10;99326.00;;;;5051101;28;20068;-62
2023/05/27 06:36:29;;;;;;;11.00;3.85;;;;;16.00;99331.00;;;;5051146;28;20052;-62
2023/05/27 06:38:56;;;;;;;8.38;3.08;;;;;16.00;99322.00;;;;5051369;28;20053;-62
2023/05/27 06:41:23;;;;;;;12.63;3.58;;;;;16.00;99318.00;;;;5052533;28;20470;-61
2023/05/27 06:44:09;;;;;;;10.23;3.47;;;;;16.00;99320.00;;;;5052397;28;20045;-62
2023/05/27 06:46:47;;;;;;;11.18;3.42;;;;;16.00;99326.00;;;;5050880;28;20092;-62
2023/05/27 06:49:22;;;;;;;8.30;3.00;;;;;16.00;99316.00;;;;5050668;28;20438;-62
2023/05/27 06:51:49;;;;;;;12.23;2.85;;;;;16.00;99313.00;;;;5051582;28;20055;-62
2023/05/27 06:54:16;;;;;;;12.73;4.10;;;;;16.10;99319.00;;;;5050724;28;20076;-62
2023/05/27 06:56:44;;;;;;;8.85;3.30;;;;;16.30;99331.00;;;;5034901;28;20076;-62
2023/05/27 06:59:30;;;;;;;9.23;3.15;;;;;16.40;99326.00;;;;5056373;28;20056;-62
2023/05/27 07:01:58;;;;;;;12.20;3.08;;;;;16.40;99326.00;;;;5054902;28;20103;-62
2023/05/27 07:04:25;;;;;;;12.50;3.45;;;;;16.40;99322.00;;;;5054642;28;20454;-63
2023/05/27 07:06:54;;;;;;;10.43;3.60;;;;;16.40;99325.00;;;;5054483;28;20091;-63
2023/05/27 07:09:21;;;;;;;11.63;4.07;;;;;16.50;99325.00;;;;5054569;28;20091;-64
2023/05/27 07:11:48;;;;;;;10.65;3.30;;;;;16.60;99324.00;;;;5054905;28;20583;-63
2023/05/27 07:14:35;;;;;;;11.55;3.78;;;;;16.60;99318.00;;;;5055985;28;20056;-63
2023/05/27 07:17:02;;;;;;;9.93;4.32;;;;;16.80;99319.00;;;;5054726;28;20121;-63
2023/05/27 07:19:29;;;;;;;11.13;4.22;;;;;16.90;99320.00;;;;5055808;28;20557;-63
2023/05/27 07:22:00;;;;;;;9.00;3.72;;;;;17.00;99329.00;;;;5054465;28;20057;-63
2023/05/27 07:24:32;;;;;;;13.05;3.38;;;;;17.10;99326.00;;;;5054207;28;20775;-62
2023/05/27 07:26:59;;;;;;;13.60;4.60;;;;;17.10;99318.00;;;;5054337;28;20041;-63
2023/05/27 07:29:28;;;;;;;9.20;3.22;;;;;17.20;99323.00;;;;5053890;28;20049;-63
2023/05/27 07:32:13;;;;;;;11.35;2.92;;;;;17.30;99321.00;;;;5056076;28;20130;-62
2023/05/27 07:34:40;;;;;;;7.35;2.92;;;;;17.30;99320.00;;;;5054562;28;20049;-63
2023/05/27 07:37:07;;;;;;;9.52;3.50;;;;;17.30;99315.00;;;;5054036;28;20094;-62
2023/05/27 07:39:33;;;;;;;9.23;3.70;;;;;17.40;99312.00;;;;5037909;28;20060;-62
2023/05/27 07:42:00;;;;;;;12.05;3.97;;;;;17.40;99309.00;;;;5054261;28;20044;-64
2023/05/27 07:44:30;;;;;;;11.93;3.75;;;;;17.40;99307.00;;;;5055685;28;20087;-63
2023/05/27 07:46:57;;;;;;;8.73;3.25;;;;;17.50;99299.00;;;;5054291;28;20053;-63
2023/05/27 07:49:25;;;;;;;11.57;3.53;;;;;17.60;99297.00;;;;5054027;28;20102;-63
2023/05/27 07:52:24;;;;;;;12.75;3.15;;;;;17.80;99298.00;;;;5032320;28;20124;-64
2023/05/27 07:54:51;;;;;;;10.68;3.65;;;;;17.90;99309.00;;;;5053592;28;20051;-63
2023/05/27 07:57:23;;;;;;;11.00;3.83;;;;;17.90;99311.00;;;;5053985;28;20048;-63
2023/05/27 07:59:50;;;;;;;11.30;3.22;;;;;17.90;99304.00;;;;5054607;28;20460;-64
2023/05/27 08:02:17;;;;;;;13.57;3.45;;;;;18.10;99310.00;;;;5054477;28;20099;-63
2023/05/27 08:04:47;;;;;;;12.15;4.30;;;;;18.20;99294.00;;;;5053864;28;20044;-65
2023/05/27 08:07:36;;;;;;;7.70;2.92;;;;;18.30;99298.00;;;;5053433;28;20528;-64
2023/05/27 08:10:10;;;;;;;8.82;3.40;;;;;18.50;99298.00;;;;5054235;28;20462;-64
2023/05/27 08:12:55;;;;;;;16.42;3.97;;;;;18.60;99293.00;;;;5055241;28;20125;-63
2023/05/27 08:15:31;;;;;;;7.55;3.40;;;;;18.50;99288.00;;;;5053638;28;20052;-63
2023/05/27 08:18:17;;;;;;;8.40;3.28;;;;;18.60;99289.00;;;;5054628;28;20040;-63
2023/05/27 08:20:59;;;;;;;11.23;3.65;;;;;18.70;99282.00;;;;5053221;28;20056;-63
2023/05/27 08:23:48;;;;;;;11.98;4.03;;;;;18.70;99280.00;;;;5054899;28;20406;-63
2023/05/27 08:26:32;;;;;;;11.35;3.55;;;;;18.70;99278.00;;;;5059456;28;20049;-63
2023/05/27 08:29:22;;;;;;;8.55;3.28;;;;;18.70;99268.00;;;;5061854;28;20084;-64
2023/05/27 08:32:07;;;;;;;11.55;3.60;;;;;18.90;99262.00;;;;5065359;28;20049;-64
2023/05/27 08:34:34;;;;;;;9.10;3.72;;;;;19.10;99261.00;;;;5060832;28;20076;-64
2023/05/27 08:37:03;;;;;;;10.57;3.50;;;;;19.10;99267.00;;;;5053628;28;20041;-64
2023/05/27 08:39:33;;;;;;;10.30;3.20;;;;;19.10;99267.00;;;;5052972;28;20473;-63
2023/05/27 08:42:08;;;;;;;11.15;3.50;;;;;19.20;99275.00;;;;5052797;28;20381;-64
2023/05/27 08:44:34;;;;;;;11.00;4.20;;;;;19.30;99269.00;;;;5052814;28;20037;-65
2023/05/27 08:47:04;;;;;;;11.52;3.83;;;;;19.40;99266.00;;;;5053297;28;20041;-62
2023/05/27 08:49:32;;;;;;;13.50;3.80;;;;;19.40;99271.00;;;;5052937;28;20049;-63
2023/05/27 08:52:01;;;;;;;12.05;3.85;;;;;19.40;99267.00;;;;5053940;28;20132;-63
2023/05/27 08:54:30;;;;;;;10.68;3.83;;;;;19.40;99259.00;;;;5052538;28;20310;-63
2023/05/27 08:57:01;;;;;;;11.10;3.67;;;;;19.60;99264.00;;;;5053606;28;20049;-63
2023/05/27 08:59:28;;;;;;;11.07;3.45;;;;;19.70;99263.00;;;;5052727;28;20102;-63
2023/05/27 09:01:56;;;;;;;8.43;3.10;;;;;19.90;99259.00;;;;5052809;28;20045;-64
2023/05/27 09:04:23;;;;;;;12.65;3.55;;;;;19.80;99257.00;;;;5052316;28;20041;-63
2023/05/27 09:06:50;;;;;;;10.15;3.20;;;;;19.90;99250.00;;;;5053707;28;20060;-62
2023/05/27 09:09:18;;;;;;;10.93;3.60;;;;;20.10;99256.00;;;;5053573;28;20123;-62
2023/05/27 09:11:45;;;;;;;8.75;3.63;;;;;20.20;99246.00;;;;5054250;28;20490;-62
2023/05/27 09:14:20;;;;;;;10.75;3.60;;;;;20.20;99252.00;;;;5053630;28;20041;-62
2023/05/27 09:16:47;;;;;;;10.52;3.67;;;;;20.20;99257.00;;;;5054495;28;20123;-64
2023/05/27 09:19:18;;;;;;;9.82;3.60;;;;;20.10;99247.00;;;;5051895;28;20055;-62
2023/05/27 09:21:44;;;;;;;9.93;3.60;;;;;20.10;99248.00;;;;5051987;28;20068;-63
2023/05/27 09:24:11;;;;;;;9.75;3.75;;;;;20.10;99244.00;;;;5053109;28;20040;-64
2023/05/27 09:26:38;;;;;;;11.07;3.83;;;;;20.30;99240.00;;;;5053298;28;20041;-62
2023/05/27 09:29:08;;;;;;;13.45;3.80;;;;;20.30;99240.00;;;;5051947;28;20044;-64
2023/05/27 09:31:41;;;;;;;9.50;3.30;;;;;20.40;99237.00;;;;5053373;28;20037;-64
2023/05/27 09:34:15;;;;;;;15.93;3.80;;;;;20.50;99240.00;;;;5053672;28;20124;-64
2023/05/27 09:36:47;;;;;;;10.20;3.95;;;;;20.50;99241.00;;;;5053382;28;20131;-64
2023/05/27 09:39:14;;;;;;;7.65;3.42;;;;;20.50;99240.00;;;;5053009;28;20076;-65
2023/05/27 09:41:42;;;;;;;11.43;3.55;;;;;20.50;99237.00;;;;5053151;28;20045;-63
2023/05/27 09:44:09;;;;;;;9.32;3.53;;;;;20.70;99243.00;;;;5053300;28;20554;-62
2023/05/27 09:46:36;;;;;;;9.38;3.78;;;;;20.80;99231.00;;;;5053052;28;20052;-63
2023/05/27 09:49:03;;;;;;;10.02;3.78;;;;;20.80;99237.00;;;;5053577;28;20040;-64
2023/05/27 09:51:32;;;;;;;10.77;3.88;;;;;20.80;99240.00;;;;5052303;28;20040;-63
2023/05/27 09:53:59;;;;;;;11.10;4.15;;;;;20.90;99235.00;;;;5053662;28;20048;-63
2023/05/27 09:56:27;;;;;;;9.57;3.78;;;;;21.00;99235.00;;;;5053968;28;20131;-63
2023/05/27 09:58:55;;;;;;;10.48;4.00;;;;;21.10;99235.00;;;;5072866;28;20060;-62
2023/05/27 10:01:30;;;;;;;8.13;4.07;;;;;21.10;99238.00;;;;5071058;28;20129;-62
2023/05/27 10:03:58;;;;;;;11.25;3.60;;;;;21.20;99251.00;;;;5070497;28;20076;-63
2023/05/27 10:06:26;;;;;;;9.90;3.67;;;;;21.20;99239.00;;;;5064039;28;20045;-62
2023/05/27 10:08:53;;;;;;;8.40;4.03;;;;;21.20;99239.00;;;;5064240;28;20136;-61
2023/05/27 10:11:21;;;;;;;10.10;4.22;;;;;21.10;99228.00;;;;5052432;28;20053;-63
2023/05/27 10:13:48;;;;;;;10.40;4.43;;;;;21.20;99232.00;;;;5069808;28;20051;-63
2023/05/27 10:16:21;;;;;;;11.25;3.72;;;;;21.40;99234.00;;;;5068943;28;20064;-61
2023/05/27 10:18:52;;;;;;;6.70;3.60;;;;;21.30;99235.00;;;;5065450;28;20091;-63
2023/05/27 10:21:23;;;;;;;11.85;4.10;;;;;21.40;99223.00;;;;5065780;28;20048;-62
2023/05/27 10:23:57;;;;;;;9.77;3.65;;;;;21.40;99231.00;;;;5061169;28;20516;-64
2023/05/27 10:26:33;;;;;;;;;;;;;21.50;99234.00;;;;5056307;28;20049;-63
2023/05/27 10:29:11;;;;;;;15.70;4.20;;;;;21.60;99225.00;;;;5052366;28;19963;-62
2023/05/27 10:31:51;;;;;;;10.55;3.92;;;;;21.80;99219.00;;;;5058196;28;20532;-64
2023/05/27 10:34:20;;;;;;;10.40;4.10;;;;;21.90;99222.00;;;;5059150;28;20044;-62
2023/05/27 10:36:57;;;;;;;11.80;4.07;;;;;21.90;99219.00;;;;5052417;28;20061;-62
2023/05/27 10:39:24;;;;;;;10.73;3.80;;;;;21.80;99212.00;;;;5050762;28;20686;-61
2023/05/27 10:41:56;;;;;;;11.18;4.25;;;;;22.00;99224.00;;;;5051199;28;20049;-62
2023/05/27 10:44:28;;;;;;;9.40;3.72;;;;;22.10;99213.00;;;;5051753;28;20036;-63
2023/05/27 10:47:28;;;;;;;7.72;4.10;;;;;22.10;99211.00;;;;5052056;28;20057;-64
2023/05/27 10:49:57;;;;;;;8.98;4.13;;;;;22.20;99211.00;;;;5048160;28;20081;-62
2023/05/27 10:52:26;;;;;;;6.05;3.38;;;;;22.20;99210.00;;;;5052138;28;20094;-62
2023/05/27 10:54:55;;;;;;;8.70;4.03;;;;;22.30;99199.00;;;;5052201;28;20045;-63
2023/05/27 10:57:22;;;;;;;9.60;4.18;;;;;22.20;99209.00;;;;5052167;28;20045;-61
2023/05/27 10:59:53;;;;;;;8.25;3.97;;;;;22.20;99201.00;;;;5033925;28;20045;-63
2023/05/27 11:02:28;;;;;;;11.30;3.95;;;;;22.40;99193.00;;;;5051948;28;20132;-61
2023/05/27 11:04:55;;;;;;;11.88;4.47;;;;;22.60;99198.00;;;;5051676;28;20033;-64
2023/05/27 11:07:22;;;;;;;9.90;4.20;;;;;22.60;99190.00;;;;5051890;28;20045;-61
2023/05/27 11:09:54;;;;;;;9.93;4.68;;;;;22.70;99195.00;;;;5050253;28;20120;-62
2023/05/27 11:12:22;;;;;;;11.32;3.75;;;;;22.80;99192.00;;;;5051817;28;20049;-61
2023/05/27 11:14:54;;;;;;;9.88;4.35;;;;;22.90;99197.00;;;;5050491;28;20112;-64
2023/05/27 11:17:28;;;;;;;11.30;4.05;;;;;23.00;99195.00;;;;5051758;28;20052;-63
2023/05/27 11:19:55;;;;;;;10.35;4.50;;;;;23.10;99187.00;;;;5050292;28;20065;-62
2023/05/27 11:22:22;;;;;;;10.15;4.47;;;;;23.00;99182.00;;;;5050563;28;20498;-63
2023/05/27 11:24:59;;;;;;;8.90;4.60;;;;;23.10;99183.00;;;;5051428;28;20068;-62
2023/05/27 11:27:33;;;;;;;11.88;4.03;;;;;23.20;99189.00;;;;5051549;28;20075;-64
2023/05/27 11:30:00;;;;;;;11.23;4.47;;;;;23.10;99172.00;;;;5051429;28;20132;-63
2023/05/27 11:32:26;;;;;;;13.52;4.75;;;;;23.00;99173.00;;;;5050492;28;20486;-61
2023/05/27 11:34:54;;;;;;;12.52;4.50;;;;;23.10;99170.00;;;;5051269;28;20383;-63
2023/05/27 11:37:21;;;;;;;10.57;4.60;;;;;23.20;99164.00;;;;5051536;28;20055;-62
2023/05/27 11:39:53;;;;;;;7.97;4.57;;;;;23.40;99160.00;;;;5051213;28;20124;-65
2023/05/27 11:42:23;;;;;;;10.07;4.60;;;;;23.40;99168.00;;;;5051739;28;20402;-63
2023/05/27 11:44:53;;;;;;;12.30;4.72;;;;;23.60;99152.00;;;;5054777;28;20040;-65
2023/05/27 11:47:22;;;;;;;7.25;4.18;;;;;23.60;99163.00;;;;5055027;28;20036;-63
2023/05/27 11:49:49;;;;;;;11.48;3.83;;;;;23.50;99166.00;;;;5054840;28;20041;-64
2023/05/27 11:52:17;;;;;;;9.75;4.43;;;;;23.40;99146.00;;;;5055237;28;20502;-64
2023/05/27 11:54:44;;;;;;;8.75;4.10;;;;;23.60;99141.00;;;;5054856;28;20041;-65
2023/05/27 11:57:24;;;;;;;8.98;4.38;;;;;23.70;99134.00;;;;5053671;28;20049;-62
2023/05/27 11:59:50;;;;;;;11.05;4.50;;;;;23.70;99142.00;;;;5053334;28;20049;-64
2023/05/27 12:02:17;;;;;;;9.57;4.68;;;;;23.60;99146.00;;;;5055047;28;20512;-64
2023/05/27 12:04:43;;;;;;;9.60;5.22;;;;;23.60;99139.00;;;;5054735;28;20482;-64
2023/05/27 12:07:10;;;;;;;14.43;6.05;;;;;23.50;99132.00;;;;5054647;28;20049;-64
2023/05/27 12:09:48;;;;;;;9.30;4.90;;;;;23.60;99125.00;;;;5054445;28;20051;-63
2023/05/27 12:12:15;;;;;;;9.20;4.40;;;;;23.70;99132.00;;;;5054532;28;20497;-63
2023/05/27 12:14:42;;;;;;;9.60;4.78;;;;;23.90;99130.00;;;;5053256;28;20616;-63
2023/05/27 12:17:08;;;;;;;8.88;4.70;;;;;23.90;99125.00;;;;5054531;28;20041;-63
2023/05/27 12:19:35;;;;;;;8.25;3.90;;;;;23.70;99124.00;;;;5052993;28;20147;-63
2023/05/27 12:22:02;;;;;;;9.63;4.90;;;;;23.70;99117.00;;;;5054201;28;20510;-63
2023/05/27 12:24:28;;;;;;;10.20;4.72;;;;;23.70;99116.00;;;;5054329;28;20041;-63